createdAt,value
2022-10-19T00:00:48.909Z,95.37
2022-10-19T00:03:19.413Z,96.13
2022-10-19T00:05:48.887Z,96.01
2022-10-19T00:08:15.421Z,96.22
2022-10-19T00:10:41.957Z,97.21
2022-10-19T00:13:08.592Z,97.89
2022-10-19T00:15:39.929Z,96.37
2022-10-19T00:18:08.034Z,97.24
2022-10-19T00:20:37.038Z,97.28
2022-10-19T00:23:04.066Z,96.25
2022-10-19T00:25:30.714Z,97.30
2022-10-19T00:27:57.240Z,97.85
2022-10-19T00:30:23.934Z,97.93
2022-10-19T00:32:50.399Z,98.37
2022-10-19T00:35:17.108Z,98.41
2022-10-19T00:37:43.663Z,97.11
2022-10-19T00:40:10.482Z,97.39
2022-10-19T00:42:37.100Z,96.87
2022-10-19T00:45:11.978Z,93.69
2022-10-19T00:47:39.034Z,93.47
2022-10-19T00:50:06.077Z,92.82
2022-10-19T00:52:33.016Z,95.09
2022-10-19T00:54:59.866Z,95.98
2022-10-19T00:57:29.488Z,95.87
2022-10-19T00:59:57.571Z,96.33
2022-10-19T01:02:24.144Z,96.63
2022-10-19T01:04:52.094Z,96.56
2022-10-19T01:07:19.874Z,96.78
2022-10-19T01:09:46.476Z,95.64
2022-10-19T01:12:34.019Z,96.38
2022-10-19T01:15:18.830Z,96.09
2022-10-19T01:18:27.177Z,96.13
2022-10-19T01:21:11.798Z,96.87
2022-10-19T01:24:06.326Z,96.93
2022-10-19T01:26:35.912Z,97.21
2022-10-19T01:29:17.746Z,97.23
2022-10-19T01:31:50.966Z,97.53
2022-10-19T01:34:31.658Z,97.71
2022-10-19T01:37:08.959Z,97.77
2022-10-19T01:39:50.079Z,97.57
2022-10-19T01:42:28.402Z,95.58
2022-10-19T01:45:07.672Z,96.54
2022-10-19T01:47:41.291Z,96.87
2022-10-19T01:50:11.054Z,94.24
2022-10-19T01:52:40.827Z,95.99
2022-10-19T01:55:10.434Z,96.54
2022-10-19T01:57:41.710Z,95.91
2022-10-19T02:00:12.306Z,95.89
2022-10-19T02:02:43.225Z,96.41
2022-10-19T02:05:11.180Z,96.74
2022-10-19T02:07:40.192Z,97.03
2022-10-19T02:10:07.723Z,97.16
2022-10-19T02:12:36.787Z,97.10
2022-10-19T02:15:11.554Z,97.11
2022-10-19T02:17:46.329Z,97.25
2022-10-19T02:20:14.805Z,96.46
2022-10-19T02:22:41.745Z,96.65
2022-10-19T02:25:09.604Z,94.38
2022-10-19T02:27:38.544Z,95.82
2022-10-19T02:30:05.894Z,95.89
2022-10-19T02:32:32.772Z,95.39
2022-10-19T02:34:59.670Z,94.51
2022-10-19T02:37:26.413Z,95.24
2022-10-19T02:39:53.183Z,95.42
2022-10-19T02:42:40.002Z,95.54
2022-10-19T02:45:11.343Z,95.85
2022-10-19T02:48:10.173Z,96.24
2022-10-19T02:50:37.265Z,96.37
2022-10-19T02:53:03.825Z,96.40
2022-10-19T02:55:31.108Z,96.40
2022-10-19T02:57:57.879Z,96.76
2022-10-19T03:00:24.364Z,96.75
2022-10-19T03:02:50.961Z,96.14
2022-10-19T03:05:17.446Z,96.03
2022-10-19T03:07:44.064Z,95.58
2022-10-19T03:10:10.647Z,95.86
2022-10-19T03:12:37.137Z,95.48
2022-10-19T03:15:04.207Z,95.60
2022-10-19T03:17:30.807Z,95.62
2022-10-19T03:19:57.494Z,96.28
2022-10-19T03:22:23.969Z,95.85
2022-10-19T03:24:50.666Z,96.19
2022-10-19T03:27:17.173Z,95.78
2022-10-19T03:29:43.646Z,96.22
2022-10-19T03:32:10.352Z,95.33
2022-10-19T03:34:36.927Z,95.36
2022-10-19T03:37:03.499Z,94.77
2022-10-19T03:39:30.006Z,95.60
2022-10-19T03:41:56.498Z,94.23
2022-10-19T03:44:23.062Z,94.69
2022-10-19T03:46:49.595Z,92.98
2022-10-19T03:49:16.092Z,93.89
2022-10-19T03:51:42.779Z,93.18
2022-10-19T03:54:14.758Z,94.82
2022-10-19T03:56:42.158Z,93.08
2022-10-19T03:59:12.421Z,92.23
2022-10-19T04:01:42.013Z,93.08
2022-10-19T04:04:15.143Z,91.91
2022-10-19T04:06:43.455Z,93.05
2022-10-19T04:09:12.987Z,93.96
2022-10-19T04:11:39.926Z,94.17
2022-10-19T04:14:06.877Z,94.54
2022-10-19T04:16:33.777Z,94.94
2022-10-19T04:19:00.657Z,94.21
2022-10-19T04:21:30.497Z,94.47
2022-10-19T04:24:03.051Z,94.11
2022-10-19T04:26:29.946Z,94.46
2022-10-19T04:29:00.868Z,94.58
2022-10-19T04:31:28.318Z,95.24
2022-10-19T04:33:55.202Z,95.09
2022-10-19T04:36:22.111Z,94.70
2022-10-19T04:38:48.672Z,94.67
2022-10-19T04:41:17.821Z,95.00
2022-10-19T04:43:47.969Z,95.82
2022-10-19T04:46:19.323Z,96.13
2022-10-19T04:48:47.802Z,95.85
2022-10-19T04:51:15.075Z,95.45
2022-10-19T04:53:42.694Z,94.64
2022-10-19T04:56:12.910Z,93.94
2022-10-19T04:58:39.439Z,94.73
2022-10-19T05:01:32.111Z,93.98
2022-10-19T05:04:01.433Z,94.61
2022-10-19T05:06:29.477Z,94.95
2022-10-19T05:08:56.049Z,94.56
2022-10-19T05:11:22.641Z,93.92
2022-10-19T05:13:49.512Z,94.56
2022-10-19T05:16:19.029Z,95.03
2022-10-19T05:18:50.087Z,95.48
2022-10-19T05:21:18.145Z,96.12
2022-10-19T05:23:45.053Z,96.36
2022-10-19T05:26:20.323Z,96.45
2022-10-19T05:28:56.246Z,97.10
2022-10-19T05:31:25.646Z,97.25
2022-10-19T05:33:52.277Z,97.10
2022-10-19T05:36:21.687Z,97.14
2022-10-19T05:38:50.124Z,97.10
2022-10-19T05:41:17.041Z,97.70
2022-10-19T05:43:44.130Z,97.59
2022-10-19T05:46:13.827Z,97.71
2022-10-19T05:48:40.518Z,97.65
2022-10-19T05:51:10.394Z,97.32
2022-10-19T05:56:12.833Z,95.79
2022-10-19T05:58:39.525Z,95.75
2022-10-19T06:01:06.493Z,94.70
2022-10-19T06:03:32.962Z,95.59
2022-10-19T06:06:03.573Z,95.72
2022-10-19T06:08:30.451Z,94.32
2022-10-19T06:11:17.162Z,95.42
2022-10-19T06:13:45.637Z,95.60
2022-10-19T06:16:14.579Z,95.76
2022-10-19T06:18:42.852Z,95.85
2022-10-19T06:21:15.524Z,95.93
2022-10-19T06:26:14.864Z,94.47
2022-10-19T06:28:43.077Z,95.74
2022-10-19T06:31:10.313Z,95.59
2022-10-19T06:33:37.324Z,94.16
2022-10-19T06:36:08.997Z,94.32
2022-10-19T06:38:35.451Z,94.53
2022-10-19T06:41:02.069Z,93.96
2022-10-19T06:43:28.728Z,94.51
2022-10-19T06:45:55.299Z,93.75
2022-10-19T06:48:21.926Z,93.06
2022-10-19T06:50:56.605Z,93.47
2022-10-19T06:53:23.166Z,93.47
2022-10-19T06:55:49.748Z,93.58
2022-10-19T06:58:16.282Z,92.74
2022-10-19T07:00:42.859Z,93.22
2022-10-19T07:03:09.458Z,92.84
2022-10-19T07:05:35.957Z,92.99
2022-10-19T07:08:02.591Z,92.61
2022-10-19T07:10:29.117Z,92.82
2022-10-19T07:12:56.478Z,92.10
2022-10-19T07:15:23.039Z,92.59
2022-10-19T07:17:49.502Z,91.53
2022-10-19T07:20:16.077Z,91.34
2022-10-19T07:22:42.519Z,91.14
2022-10-19T07:25:09.136Z,91.02
2022-10-19T07:27:37.812Z,91.31
2022-10-19T07:30:05.449Z,90.76
2022-10-19T07:32:31.847Z,91.14
2022-10-19T07:34:58.278Z,90.83
2022-10-19T07:37:24.822Z,91.33
2022-10-19T07:39:51.525Z,90.27
2022-10-19T07:42:18.212Z,89.80
2022-10-19T07:44:44.748Z,90.71
2022-10-19T07:47:11.378Z,91.07
2022-10-19T07:49:38.289Z,91.44
2022-10-19T07:52:05.373Z,91.21
2022-10-19T07:54:31.850Z,91.29
2022-10-19T07:56:58.382Z,90.99
2022-10-19T07:59:24.918Z,90.56
2022-10-19T08:01:53.053Z,89.83
2022-10-19T08:07:06.058Z,88.35
2022-10-19T08:09:53.172Z,88.66
2022-10-19T08:12:19.223Z,88.39
2022-10-19T08:14:45.785Z,88.76
2022-10-19T08:17:16.484Z,88.28
2022-10-19T08:19:44.292Z,88.11
2022-10-19T08:22:11.154Z,87.81
2022-10-19T08:24:37.929Z,87.55
2022-10-19T08:27:04.890Z,86.57
2022-10-19T08:29:31.881Z,85.75
2022-10-19T08:31:59.066Z,85.97
2022-10-19T08:34:25.724Z,84.00
2022-10-19T08:36:52.312Z,84.10
2022-10-19T08:39:18.981Z,84.20
2022-10-19T08:41:51.191Z,83.11
2022-10-19T08:44:36.651Z,83.66
2022-10-19T08:47:39.841Z,84.37
2022-10-19T08:50:30.804Z,84.04
2022-10-19T08:53:07.613Z,83.88
2022-10-19T08:55:43.112Z,82.24
2022-10-19T08:58:36.488Z,81.43
2022-10-19T09:01:13.565Z,79.24
2022-10-19T09:03:55.493Z,77.62
2022-10-19T09:06:31.986Z,78.35
2022-10-19T09:08:59.359Z,77.23
2022-10-19T09:11:37.202Z,79.15
2022-10-19T09:14:13.037Z,79.60
2022-10-19T09:16:39.514Z,78.87
2022-10-19T09:19:25.602Z,79.89
2022-10-19T09:22:04.243Z,79.37
2022-10-19T09:24:44.985Z,81.32
2022-10-19T09:27:23.203Z,79.82
2022-10-19T09:29:57.390Z,79.90
2022-10-19T09:32:32.188Z,80.78
2022-10-19T09:35:02.683Z,82.28
2022-10-19T09:40:01.624Z,80.62
2022-10-19T09:42:33.026Z,79.76
2022-10-19T09:45:02.813Z,79.00
2022-10-19T09:47:37.066Z,75.80
2022-10-19T09:50:23.975Z,73.32
2022-10-19T09:53:04.901Z,75.20
2022-10-19T09:55:43.970Z,74.00
2022-10-19T09:58:13.255Z,69.84
2022-10-19T10:00:47.053Z,66.10
2022-10-19T10:03:32.387Z,66.89
2022-10-19T10:06:04.055Z,64.71
2022-10-19T10:08:34.292Z,62.17
2022-10-19T10:11:15.617Z,62.13
2022-10-19T10:13:49.727Z,66.22
2022-10-19T10:16:18.593Z,68.22
2022-10-19T10:18:55.632Z,64.52
2022-10-19T10:21:25.471Z,64.97
2022-10-19T10:24:12.033Z,64.97
2022-10-19T10:26:41.180Z,67.89
2022-10-19T10:29:26.022Z,67.09
2022-10-19T10:31:55.958Z,67.28
2022-10-19T10:34:46.366Z,65.65
2022-10-19T10:37:21.591Z,67.48
2022-10-19T10:39:52.589Z,69.14
2022-10-19T10:42:25.719Z,67.89
2022-10-19T10:44:54.110Z,68.79
2022-10-19T10:47:21.195Z,66.87
2022-10-19T10:50:05.844Z,65.10
2022-10-19T10:52:33.268Z,64.23
2022-10-19T10:55:16.887Z,65.93
2022-10-19T10:57:53.590Z,65.01
2022-10-19T11:00:23.966Z,66.21
2022-10-19T11:03:05.124Z,66.15
2022-10-19T11:05:36.041Z,66.12
2022-10-19T11:08:50.042Z,66.64
2022-10-19T11:11:47.591Z,66.53
2022-10-19T11:14:36.756Z,68.21
2022-10-19T11:17:15.626Z,68.09
2022-10-19T11:19:45.084Z,69.05
2022-10-19T11:22:26.393Z,69.29
2022-10-19T11:25:02.068Z,69.54
2022-10-19T11:27:54.236Z,71.01
2022-10-19T11:30:23.313Z,69.58
2022-10-19T11:33:06.298Z,69.56
2022-10-19T11:35:41.691Z,67.71
2022-10-19T11:38:30.052Z,67.58
2022-10-19T11:41:17.886Z,69.24
2022-10-19T11:44:01.011Z,69.64
2022-10-19T11:46:32.827Z,71.08
2022-10-19T11:49:25.112Z,71.07
2022-10-19T11:51:58.228Z,69.73
2022-10-19T11:54:55.897Z,67.10
2022-10-19T11:57:52.233Z,67.26
2022-10-19T12:00:38.036Z,66.41
2022-10-19T12:03:26.451Z,62.40
2022-10-19T12:06:28.447Z,61.97
2022-10-19T12:09:28.133Z,63.88
2022-10-19T12:12:22.155Z,66.24
2022-10-19T12:14:52.916Z,66.92
2022-10-19T12:17:26.778Z,67.22
2022-10-19T12:20:00.049Z,67.66
2022-10-19T12:22:29.421Z,67.36
2022-10-19T12:25:00.271Z,69.04
2022-10-19T12:27:38.977Z,68.46
2022-10-19T12:30:19.908Z,66.35
2022-10-19T12:32:55.706Z,63.87
2022-10-19T12:35:46.209Z,62.44
2022-10-19T12:38:50.978Z,64.69
2022-10-19T12:41:33.968Z,68.63
2022-10-19T12:44:20.554Z,68.24
2022-10-19T12:46:58.773Z,71.54
2022-10-19T12:49:29.802Z,70.84
2022-10-19T12:52:01.058Z,72.87
2022-10-19T12:54:30.987Z,72.27
2022-10-19T12:57:00.319Z,72.78
2022-10-19T12:59:31.130Z,70.38
2022-10-19T13:01:59.226Z,68.06
2022-10-19T13:04:29.449Z,64.22
2022-10-19T13:07:02.568Z,60.87
2022-10-19T13:09:39.585Z,57.05
2022-10-19T13:12:22.021Z,53.42
2022-10-19T13:14:52.632Z,51.95
2022-10-19T13:17:34.697Z,51.25
2022-10-19T13:20:13.366Z,49.68
2022-10-19T13:23:05.995Z,51.05
2022-10-19T13:25:42.489Z,49.93
2022-10-19T13:28:09.306Z,49.87
2022-10-19T13:30:35.842Z,51.35
2022-10-19T13:33:31.442Z,52.22
2022-10-19T13:36:02.245Z,50.42
2022-10-19T13:38:29.901Z,52.38
2022-10-19T13:41:08.806Z,52.73
2022-10-19T13:43:44.079Z,52.29
2022-10-19T13:46:21.624Z,52.57
2022-10-19T13:49:09.644Z,50.21
2022-10-19T13:51:57.624Z,51.84
2022-10-19T13:54:27.070Z,54.07
2022-10-19T13:57:20.818Z,52.54
2022-10-19T14:00:12.112Z,50.03
2022-10-19T14:02:56.872Z,51.83
2022-10-19T14:05:54.123Z,52.25
2022-10-19T14:08:42.376Z,53.17
2022-10-19T14:11:21.592Z,50.83
2022-10-19T14:14:12.015Z,53.94
2022-10-19T14:16:55.974Z,52.27
2022-10-19T14:19:31.195Z,55.03
2022-10-19T14:22:01.189Z,52.04
2022-10-19T14:24:35.536Z,54.32
2022-10-19T14:27:04.552Z,54.44
2022-10-19T14:29:44.253Z,53.58
2022-10-19T14:32:11.847Z,53.98
2022-10-19T14:34:43.647Z,53.98
2022-10-19T14:37:19.395Z,55.92
2022-10-19T14:40:26.340Z,57.67
2022-10-19T14:42:55.202Z,57.55
2022-10-19T14:45:25.697Z,56.88
2022-10-19T14:47:57.141Z,58.94
2022-10-19T14:50:44.604Z,60.01
2022-10-19T14:53:32.428Z,61.15
2022-10-19T14:56:04.958Z,62.96
2022-10-19T14:58:39.214Z,65.98
2022-10-19T15:01:06.444Z,66.71
2022-10-19T15:03:33.503Z,67.86
2022-10-19T15:06:04.432Z,69.15
2022-10-19T15:08:47.580Z,70.08
2022-10-19T15:11:41.999Z,73.06
2022-10-19T15:14:14.052Z,73.01
2022-10-19T15:16:51.000Z,74.16
2022-10-19T15:19:29.843Z,74.58
2022-10-19T15:22:14.469Z,75.64
2022-10-19T15:24:55.931Z,76.13
2022-10-19T15:27:30.147Z,77.08
2022-10-19T15:29:56.614Z,78.17
2022-10-19T15:32:26.349Z,78.81
2022-10-19T15:34:52.935Z,79.91
2022-10-19T15:37:22.541Z,80.36
2022-10-19T15:39:51.003Z,81.21
2022-10-19T15:42:35.894Z,81.84
2022-10-19T15:45:04.053Z,81.95
2022-10-19T15:47:31.134Z,82.83
2022-10-19T15:50:02.145Z,83.02
2022-10-19T15:52:32.976Z,83.18
2022-10-19T15:55:01.059Z,84.29
2022-10-19T15:57:34.283Z,84.11
2022-10-19T16:00:12.148Z,84.65
2022-10-19T16:02:39.171Z,85.05
2022-10-19T16:07:40.210Z,85.76
2022-10-19T16:10:08.106Z,87.17
2022-10-19T16:12:34.553Z,87.29
2022-10-19T16:15:01.126Z,87.32
2022-10-19T16:17:27.722Z,87.18
2022-10-19T16:19:54.270Z,87.59
2022-10-19T16:22:20.795Z,87.69
2022-10-19T16:24:47.361Z,87.91
2022-10-19T16:27:16.981Z,88.56
2022-10-19T16:29:44.659Z,88.53
2022-10-19T16:32:11.594Z,88.75
2022-10-19T16:34:38.144Z,89.15
2022-10-19T16:37:06.894Z,89.33
2022-10-19T16:39:34.667Z,89.29
2022-10-19T16:42:01.305Z,89.22
2022-10-19T16:44:27.817Z,90.23
2022-10-19T16:46:56.582Z,90.29
2022-10-19T16:49:23.144Z,90.43
2022-10-19T16:51:51.979Z,90.57
2022-10-19T16:54:21.461Z,91.43
2022-10-19T16:56:48.442Z,91.14
2022-10-19T16:59:17.827Z,91.45
2022-10-19T17:01:45.823Z,91.14
2022-10-19T17:04:13.121Z,91.29
2022-10-19T17:06:40.610Z,91.77
2022-10-19T17:11:54.460Z,92.48
2022-10-19T17:14:20.928Z,92.49
2022-10-19T17:16:47.523Z,92.66
2022-10-19T17:19:14.132Z,92.54
2022-10-19T17:21:42.202Z,92.71
2022-10-19T17:24:20.203Z,93.09
2022-10-19T17:26:46.828Z,93.00
2022-10-19T17:29:13.889Z,92.80
2022-10-19T17:31:41.471Z,92.93
2022-10-19T17:34:08.456Z,93.05
2022-10-19T17:36:38.318Z,93.19
2022-10-19T17:39:12.371Z,93.47
2022-10-19T17:41:38.869Z,93.58
2022-10-19T17:44:06.008Z,93.70
2022-10-19T17:46:34.553Z,93.58
2022-10-19T17:49:01.438Z,93.84
2022-10-19T17:51:30.106Z,93.80
2022-10-19T17:53:59.553Z,94.09
2022-10-19T17:56:26.885Z,94.15
2022-10-19T17:58:54.168Z,94.17
2022-10-19T18:01:22.457Z,94.12
2022-10-19T18:03:50.140Z,94.27
2022-10-19T18:06:25.621Z,94.50
2022-10-19T18:08:53.989Z,94.62
2022-10-19T18:11:26.710Z,94.55
2022-10-19T18:13:56.219Z,95.11
2022-10-19T18:16:29.453Z,94.94
2022-10-19T18:18:58.097Z,95.02
2022-10-19T18:21:27.473Z,94.98
2022-10-19T18:23:56.885Z,94.97
2022-10-19T18:26:25.606Z,95.09
2022-10-19T18:28:53.490Z,95.24
2022-10-19T18:31:22.482Z,95.77
2022-10-19T18:34:01.463Z,95.62
2022-10-19T18:36:28.460Z,95.42
2022-10-19T18:38:57.838Z,95.56
2022-10-19T18:41:25.170Z,95.65
2022-10-19T18:43:54.046Z,95.91
2022-10-19T18:46:22.335Z,95.72
2022-10-19T18:48:49.807Z,95.80
2022-10-19T18:51:17.713Z,95.86
2022-10-19T18:53:45.226Z,95.86
2022-10-19T18:56:13.739Z,95.77
2022-10-19T18:58:40.268Z,95.77
2022-10-19T19:01:10.082Z,95.92
2022-10-19T19:03:38.570Z,95.89
2022-10-19T19:06:08.031Z,96.07
2022-10-19T19:08:34.899Z,96.39
2022-10-19T19:11:22.108Z,96.33
2022-10-19T19:13:54.051Z,96.33
2022-10-19T19:16:21.494Z,96.29
2022-10-19T19:18:48.145Z,96.39
2022-10-19T19:21:17.055Z,96.80
2022-10-19T19:23:43.748Z,96.51
2022-10-19T19:26:12.756Z,96.51
2022-10-19T19:28:41.913Z,96.90
2022-10-19T19:31:10.571Z,97.26
2022-10-19T19:33:38.247Z,96.89
2022-10-19T19:36:06.423Z,96.98
2022-10-19T19:38:33.500Z,96.79
2022-10-19T19:41:03.019Z,96.82
2022-10-19T19:43:31.386Z,97.09
2022-10-19T19:46:03.152Z,96.97
2022-10-19T19:48:32.745Z,96.89
2022-10-19T19:50:59.270Z,96.95
2022-10-19T19:53:25.826Z,97.36
2022-10-19T19:55:52.299Z,97.54
2022-10-19T19:58:19.046Z,97.44
2022-10-19T20:00:46.244Z,97.38
2022-10-19T20:03:13.577Z,97.38
2022-10-19T20:05:40.744Z,97.51
2022-10-19T20:08:09.041Z,97.33
2022-10-19T20:10:40.309Z,97.74
2022-10-19T20:13:06.917Z,97.46
2022-10-19T20:15:36.641Z,97.55
2022-10-19T20:18:03.142Z,97.50
2022-10-19T20:20:29.661Z,97.68
2022-10-19T20:22:56.214Z,97.41
2022-10-19T20:25:22.747Z,97.54
2022-10-19T20:27:49.431Z,97.40
2022-10-19T20:30:15.992Z,97.35
2022-10-19T20:32:42.397Z,97.25
2022-10-19T20:35:09.238Z,97.38
2022-10-19T20:37:35.809Z,97.39
2022-10-19T20:40:07.461Z,97.40
2022-10-19T20:42:35.667Z,97.33
2022-10-19T20:45:02.581Z,97.51
2022-10-19T20:47:29.830Z,97.56
2022-10-19T20:49:56.501Z,97.76
2022-10-19T20:52:23.144Z,97.56
2022-10-19T20:54:49.585Z,97.53
2022-10-19T20:57:16.114Z,97.52
2022-10-19T20:59:43.929Z,97.68
2022-10-19T21:02:11.315Z,97.71
2022-10-19T21:04:38.002Z,97.65
2022-10-19T21:07:04.953Z,97.73
2022-10-19T21:09:32.037Z,97.68
2022-10-19T21:11:58.906Z,97.88
2022-10-19T21:14:29.063Z,97.97
2022-10-19T21:16:57.480Z,97.93
2022-10-19T21:19:25.585Z,97.88
2022-10-19T21:22:02.441Z,97.80
2022-10-19T21:24:32.416Z,98.10
2022-10-19T21:27:04.784Z,98.13
2022-10-19T21:29:31.528Z,98.12
2022-10-19T21:31:58.846Z,97.85
2022-10-19T21:34:28.574Z,98.18
2022-10-19T21:36:55.860Z,97.85
2022-10-19T21:39:22.872Z,98.11
2022-10-19T21:41:49.870Z,97.99
2022-10-19T21:44:18.231Z,98.08
2022-10-19T21:46:47.159Z,97.95
2022-10-19T21:49:15.011Z,97.90
2022-10-19T21:51:50.981Z,97.89
2022-10-19T21:54:20.088Z,97.93
2022-10-19T21:56:47.580Z,98.05
2022-10-19T21:59:14.901Z,98.24
2022-10-19T22:01:41.857Z,98.07
2022-10-19T22:04:15.410Z,98.23
2022-10-19T22:06:43.212Z,98.34
2022-10-19T22:09:13.470Z,98.18
2022-10-19T22:11:40.001Z,98.21
2022-10-19T22:14:06.596Z,98.35
2022-10-19T22:16:38.418Z,98.47
2022-10-19T22:19:09.986Z,98.47
2022-10-19T22:21:40.084Z,98.67
2022-10-19T22:24:13.415Z,98.60
2022-10-19T22:26:42.672Z,98.85
2022-10-19T22:29:09.830Z,98.66
2022-10-19T22:31:40.096Z,98.88
2022-10-19T22:34:09.770Z,98.82
2022-10-19T22:36:36.715Z,98.93
2022-10-19T22:39:04.176Z,98.74
2022-10-19T22:41:30.678Z,99.04
2022-10-19T22:43:57.135Z,99.25
2022-10-19T22:46:23.672Z,99.00
2022-10-19T22:48:50.159Z,99.06
2022-10-19T22:51:16.682Z,99.12
2022-10-19T22:53:45.794Z,98.99
2022-10-19T22:56:12.552Z,98.97
2022-10-19T22:58:39.520Z,99.06
2022-10-19T23:01:12.361Z,99.20
2022-10-19T23:03:40.369Z,99.20
2022-10-19T23:06:09.599Z,99.02
2022-10-19T23:08:36.375Z,99.05
2022-10-19T23:11:02.949Z,98.98
2022-10-19T23:13:29.494Z,98.98
2022-10-19T23:15:56.267Z,99.16
2022-10-19T23:18:22.862Z,99.16
2022-10-19T23:21:00.240Z,99.24
2022-10-19T23:23:28.439Z,99.48
2022-10-19T23:26:05.522Z,99.57
2022-10-19T23:28:35.065Z,99.71
2022-10-19T23:31:12.502Z,99.53
2022-10-19T23:33:39.417Z,99.70
2022-10-19T23:36:15.299Z,99.85
2022-10-19T23:38:44.290Z,99.64
2022-10-19T23:41:12.486Z,99.86
2022-10-19T23:43:39.810Z,99.75
2022-10-19T23:46:06.653Z,99.86
2022-10-19T23:48:34.496Z,99.99
2022-10-19T23:51:03.999Z,99.79
2022-10-19T23:53:34.661Z,99.99
2022-10-19T23:56:12.372Z,99.86
2022-10-19T23:58:39.009Z,99.76
